Time;durP1;ratioP1;P1;durP2;ratioP2;P2;SDS_P1;SDS_P2;PMS_P1;PMS_P2;Temp;Humidity;BMP_temperature;BMP_pressure;BME280_temperature;BME280_humidity;BME280_pressure;Samples;Min_cycle;Max_cycle;Signal;HPM_P1;HPM_P2
2020/12/16 00:00:10;;;;;;;150.43;52.33;;;7.30;99.90;;;;;;5033022;28;20050;-73
2020/12/16 00:02:40;;;;;;;144.93;50.88;;;7.20;99.90;;;;;;5047610;28;20041;-73
2020/12/16 00:05:25;;;;;;;146.93;52.22;;;7.20;99.90;;;;;;5032467;28;20049;-73
2020/12/16 00:07:51;;;;;;;147.95;51.88;;;7.10;99.90;;;;;;5046849;28;20038;-73
2020/12/16 00:10:17;;;;;;;158.70;54.50;;;7.10;99.90;;;;;;5047862;28;20050;-73
2020/12/16 00:13:03;;;;;;;159.57;55.85;;;7.10;99.90;;;;;;5033121;28;20053;-73
2020/12/16 00:15:29;;;;;;;168.05;56.60;;;7.10;99.90;;;;;;5047996;28;20109;-73
2020/12/16 00:17:55;;;;;;;148.02;55.00;;;7.10;99.90;;;;;;5047227;28;20045;-73
2020/12/16 00:20:20;;;;;;;164.45;53.00;;;7.10;99.90;;;;;;5047739;28;20045;-73
2020/12/16 00:22:46;;;;;;;181.35;55.83;;;7.00;99.90;;;;;;5047926;28;20057;-73
2020/12/16 00:25:13;;;;;;;171.45;54.15;;;6.90;99.90;;;;;;5047865;28;20064;-73
2020/12/16 00:27:38;;;;;;;173.80;56.58;;;6.90;99.90;;;;;;5046357;28;20072;-73
2020/12/16 00:30:24;;;;;;;169.50;55.88;;;6.80;99.90;;;;;;5032734;28;20108;-73
2020/12/16 00:32:50;;;;;;;198.25;57.53;;;6.70;99.90;;;;;;5047071;28;20445;-73
2020/12/16 00:35:16;;;;;;;199.45;59.15;;;6.80;99.90;;;;;;5047206;28;20052;-73
2020/12/16 00:37:43;;;;;;;200.82;61.83;;;6.80;99.90;;;;;;5046898;28;20041;-74
2020/12/16 00:40:17;;;;;;;211.38;62.15;;;6.80;99.90;;;;;;5047184;28;20046;-73
2020/12/16 00:42:46;;;;;;;207.20;60.95;;;6.70;99.90;;;;;;5047062;28;20041;-73
2020/12/16 00:45:12;;;;;;;190.52;58.90;;;6.80;99.90;;;;;;5047090;28;20445;-73
2020/12/16 00:47:38;;;;;;;192.85;61.03;;;6.60;99.90;;;;;;5046667;28;20052;-74
2020/12/16 00:50:06;;;;;;;218.63;61.28;;;6.70;99.90;;;;;;5046784;28;20071;-74
2020/12/16 00:52:31;;;;;;;223.10;61.58;;;6.60;99.90;;;;;;5046754;28;20500;-73
2020/12/16 00:55:17;;;;;;;218.13;60.63;;;6.70;99.90;;;;;;5032061;28;20409;-73
2020/12/16 00:58:03;;;;;;;220.15;65.10;;;6.70;99.90;;;;;;5031788;28;20389;-74
2020/12/16 01:00:29;;;;;;;222.20;62.53;;;6.80;99.90;;;;;;5046542;28;20101;-73
2020/12/16 01:02:54;;;;;;;205.98;63.55;;;6.90;99.90;;;;;;5046449;28;20069;-74
2020/12/16 01:05:40;;;;;;;219.13;61.20;;;6.90;99.90;;;;;;5032047;28;20045;-73
2020/12/16 01:08:06;;;;;;;266.92;64.55;;;6.90;99.90;;;;;;5046189;28;20142;-73
2020/12/16 01:10:52;;;;;;;269.40;62.60;;;7.00;99.90;;;;;;5031737;28;20103;-74
2020/12/16 01:13:18;;;;;;;291.40;68.38;;;7.00;99.90;;;;;;5046383;28;20045;-74
2020/12/16 01:15:43;;;;;;;266.83;61.15;;;7.00;99.90;;;;;;5046590;28;20045;-74
2020/12/16 01:18:29;;;;;;;387.60;70.35;;;6.90;99.90;;;;;;5047416;28;20065;-73
2020/12/16 01:20:55;;;;;;;331.23;63.00;;;6.90;99.90;;;;;;5026460;28;20056;-73
2020/12/16 01:23:20;;;;;;;417.90;71.43;;;6.90;99.90;;;;;;5026783;28;20038;-73
2020/12/16 01:25:46;;;;;;;368.48;65.70;;;6.90;99.90;;;;;;5026519;28;20042;-73
2020/12/16 01:28:12;;;;;;;348.00;62.83;;;6.90;99.90;;;;;;5034515;28;20061;-73
2020/12/16 01:30:38;;;;;;;455.50;68.80;;;6.90;99.90;;;;;;5046363;28;20052;-74
2020/12/16 01:33:24;;;;;;;366.60;62.88;;;6.90;99.90;;;;;;5031110;28;20057;-74
2020/12/16 01:35:50;;;;;;;368.63;64.75;;;6.90;99.90;;;;;;5045625;28;20049;-74
2020/12/16 01:38:15;;;;;;;430.23;66.43;;;6.90;99.90;;;;;;5046248;28;20053;-74
2020/12/16 01:40:41;;;;;;;399.30;65.82;;;6.90;99.90;;;;;;5046069;28;20045;-74
2020/12/16 01:43:07;;;;;;;388.58;64.40;;;6.90;99.90;;;;;;5045927;28;20041;-74
2020/12/16 01:45:33;;;;;;;476.50;67.05;;;6.90;99.90;;;;;;5045875;28;20041;-74
2020/12/16 01:47:58;;;;;;;473.08;71.90;;;6.90;99.90;;;;;;5045398;28;20055;-73
2020/12/16 01:50:44;;;;;;;491.65;69.00;;;6.90;99.90;;;;;;5031286;28;20049;-74
2020/12/16 01:53:10;;;;;;;427.08;63.35;;;6.90;99.90;;;;;;5046034;28;20050;-73
2020/12/16 01:55:36;;;;;;;592.42;77.18;;;6.80;99.90;;;;;;5045415;28;20108;-74
2020/12/16 01:58:06;;;;;;;490.08;70.25;;;6.90;99.90;;;;;;5045479;28;20049;-73
2020/12/16 02:00:53;;;;;;;417.85;64.82;;;6.80;99.90;;;;;;5030974;28;20073;-73
2020/12/16 02:03:43;;;;;;;346.58;61.60;;;6.80;99.90;;;;;;5031018;28;20049;-73
2020/12/16 02:06:34;;;;;;;428.00;63.17;;;6.80;99.90;;;;;;5030177;28;20045;-73
2020/12/16 02:09:08;;;;;;;513.15;66.45;;;6.80;99.90;;;;;;5045623;28;20069;-73
2020/12/16 02:11:37;;;;;;;494.20;72.43;;;6.70;99.90;;;;;;5045684;28;20045;-74
2020/12/16 02:14:08;;;;;;;344.00;55.38;;;6.70;99.90;;;;;;5045310;28;20192;-73
2020/12/16 02:16:38;;;;;;;365.58;59.60;;;6.70;99.90;;;;;;5045279;28;20112;-73
2020/12/16 02:19:29;;;;;;;281.13;54.03;;;6.70;99.90;;;;;;5030727;28;20103;-73
2020/12/16 02:21:54;;;;;;;286.90;53.75;;;6.70;99.90;;;;;;5045401;28;20048;-74
2020/12/16 02:24:21;;;;;;;312.73;55.53;;;6.70;99.90;;;;;;5045460;28;20077;-73
2020/12/16 02:27:09;;;;;;;474.25;60.30;;;6.60;99.90;;;;;;5030182;28;20045;-73
2020/12/16 02:29:56;;;;;;;402.40;58.75;;;6.60;99.90;;;;;;5030542;28;20052;-73
2020/12/16 02:32:27;;;;;;;393.67;54.95;;;6.60;99.90;;;;;;5045119;28;20049;-73
2020/12/16 02:34:54;;;;;;;321.25;50.00;;;6.50;99.90;;;;;;5045438;28;20075;-73
2020/12/16 02:37:40;;;;;;;294.73;47.55;;;6.50;99.90;;;;;;5030097;28;20524;-74
2020/12/16 02:40:26;;;;;;;241.88;48.00;;;6.50;99.90;;;;;;5031251;28;20050;-73
2020/12/16 02:42:52;;;;;;;383.48;53.85;;;6.50;99.90;;;;;;5049243;28;20466;-73
2020/12/16 02:45:37;;;;;;;259.52;51.28;;;6.50;99.90;;;;;;5034566;28;20496;-73
2020/12/16 02:48:03;;;;;;;230.18;46.35;;;6.50;99.90;;;;;;5048764;28;20101;-73
2020/12/16 02:50:29;;;;;;;272.25;49.05;;;6.50;99.90;;;;;;5049631;28;20045;-73
2020/12/16 02:52:54;;;;;;;215.80;46.65;;;6.50;99.90;;;;;;5049323;28;20048;-73
2020/12/16 02:55:20;;;;;;;216.32;47.70;;;6.60;99.90;;;;;;5049666;28;20425;-74
2020/12/16 02:57:46;;;;;;;343.58;54.03;;;6.60;99.90;;;;;;5049496;28;20038;-73
2020/12/16 03:00:12;;;;;;;429.42;58.42;;;6.60;99.90;;;;;;5049205;28;20049;-73
2020/12/16 03:02:37;;;;;;;405.55;58.88;;;6.60;99.90;;;;;;5049418;28;20069;-73
2020/12/16 03:05:03;;;;;;;458.58;62.78;;;6.60;99.90;;;;;;5049423;28;20101;-73
2020/12/16 03:07:29;;;;;;;263.67;51.60;;;6.60;99.90;;;;;;5048719;28;20052;-73
2020/12/16 03:09:55;;;;;;;275.90;52.00;;;6.60;99.90;;;;;;5049378;28;20049;-73
2020/12/16 03:12:21;;;;;;;276.13;53.75;;;6.60;99.90;;;;;;5049121;28;20060;-73
2020/12/16 03:15:06;;;;;;;291.42;50.40;;;6.60;99.90;;;;;;5034371;28;20045;-73
2020/12/16 03:17:32;;;;;;;230.73;42.72;;;6.60;99.90;;;;;;5048392;28;20493;-74
2020/12/16 03:19:58;;;;;;;286.63;48.28;;;6.60;99.90;;;;;;5048943;28;20045;-73
2020/12/16 03:22:23;;;;;;;269.80;47.60;;;6.60;99.90;;;;;;5049144;28;20046;-73
2020/12/16 03:24:49;;;;;;;246.63;45.70;;;6.60;99.90;;;;;;5048968;28;20064;-72
2020/12/16 03:27:15;;;;;;;235.70;42.67;;;6.60;99.90;;;;;;5048351;28;20061;-73
2020/12/16 03:29:41;;;;;;;277.63;47.38;;;6.60;99.90;;;;;;5048965;28;20045;-73
2020/12/16 03:32:26;;;;;;;234.50;45.53;;;6.70;99.90;;;;;;5033963;28;20061;-73
2020/12/16 03:34:52;;;;;;;264.35;46.47;;;6.70;99.90;;;;;;5048916;28;20053;-73
2020/12/16 03:37:18;;;;;;;199.55;42.70;;;6.70;99.90;;;;;;5048371;28;20045;-73
2020/12/16 03:39:44;;;;;;;184.23;38.63;;;6.70;99.90;;;;;;5048680;28;20093;-73
2020/12/16 03:42:10;;;;;;;193.15;39.72;;;6.70;99.90;;;;;;5048722;28;20052;-73
2020/12/16 03:44:36;;;;;;;210.85;42.90;;;6.70;99.90;;;;;;5048605;28;20045;-73
2020/12/16 03:47:02;;;;;;;188.88;36.72;;;6.70;99.90;;;;;;5048313;28;20416;-73
2020/12/16 03:49:28;;;;;;;198.43;43.05;;;6.70;99.90;;;;;;5048524;28;20049;-73
2020/12/16 03:51:58;;;;;;;205.88;40.25;;;6.70;99.90;;;;;;5047918;28;20048;-72
2020/12/16 03:54:25;;;;;;;215.95;42.65;;;6.70;99.90;;;;;;5048117;28;20065;-72
2020/12/16 03:56:51;;;;;;;237.93;41.83;;;6.70;99.90;;;;;;5048494;28;20046;-73
2020/12/16 03:59:17;;;;;;;232.23;40.50;;;6.70;99.90;;;;;;5048315;28;20041;-73
2020/12/16 04:01:43;;;;;;;204.07;38.60;;;6.70;99.90;;;;;;5047772;28;20042;-73
2020/12/16 04:04:10;;;;;;;172.98;37.00;;;6.70;99.90;;;;;;5047790;28;20053;-73
2020/12/16 04:06:36;;;;;;;184.55;39.28;;;6.70;99.90;;;;;;5047865;28;20064;-73
2020/12/16 04:09:25;;;;;;;208.80;41.10;;;6.80;99.90;;;;;;5014095;28;20057;-72
2020/12/16 04:11:52;;;;;;;181.02;36.72;;;6.80;99.90;;;;;;5028206;28;20045;-72
2020/12/16 04:14:38;;;;;;;150.77;38.75;;;6.80;99.90;;;;;;5027081;28;20050;-72
2020/12/16 04:17:04;;;;;;;199.98;39.38;;;6.80;99.90;;;;;;5033055;28;20044;-73
2020/12/16 04:19:49;;;;;;;172.13;38.63;;;6.80;99.90;;;;;;5033038;28;20048;-72
2020/12/16 04:22:15;;;;;;;179.15;39.38;;;6.80;99.90;;;;;;5047885;28;20552;-73
2020/12/16 04:24:41;;;;;;;180.00;38.67;;;6.80;99.90;;;;;;5047868;28;20046;-73
2020/12/16 04:27:27;;;;;;;174.98;36.35;;;6.80;99.90;;;;;;5032678;28;20064;-73
2020/12/16 04:29:52;;;;;;;167.15;38.13;;;6.80;99.90;;;;;;5047992;28;20072;-72
2020/12/16 04:32:18;;;;;;;148.73;34.33;;;6.90;99.90;;;;;;5047956;28;20038;-73
2020/12/16 04:34:44;;;;;;;173.65;36.65;;;6.90;99.90;;;;;;5047772;28;20049;-73
2020/12/16 04:37:10;;;;;;;177.02;38.47;;;6.90;99.90;;;;;;5047320;28;20041;-73
2020/12/16 04:39:56;;;;;;;178.27;37.65;;;6.90;99.90;;;;;;5032994;28;20103;-73
2020/12/16 04:42:22;;;;;;;141.05;34.28;;;6.90;99.90;;;;;;5047274;28;20057;-73
2020/12/16 04:44:47;;;;;;;156.82;36.65;;;6.90;99.90;;;;;;5047659;28;20072;-73
2020/12/16 04:47:14;;;;;;;150.23;35.55;;;6.90;99.90;;;;;;5047759;28;20053;-73
2020/12/16 04:49:40;;;;;;;138.50;34.80;;;6.90;99.90;;;;;;5047487;28;20049;-73
2020/12/16 04:52:06;;;;;;;128.85;34.08;;;7.00;99.90;;;;;;5047110;28;20068;-73
2020/12/16 04:54:32;;;;;;;156.77;36.70;;;6.90;99.90;;;;;;5047357;28;20054;-73
2020/12/16 04:56:59;;;;;;;146.88;36.72;;;7.00;99.90;;;;;;5047351;28;20052;-72
2020/12/16 04:59:25;;;;;;;166.50;37.47;;;7.00;99.90;;;;;;5047368;28;20046;-72
2020/12/16 05:01:51;;;;;;;135.35;32.17;;;7.00;99.90;;;;;;5046899;28;20076;-73
2020/12/16 05:04:17;;;;;;;122.70;33.42;;;7.00;99.90;;;;;;5046340;28;20045;-73
2020/12/16 05:06:46;;;;;;;140.98;33.00;;;6.90;99.90;;;;;;5046625;28;20041;-73
2020/12/16 05:09:32;;;;;;;149.52;36.80;;;7.00;99.90;;;;;;5032478;28;20076;-73
2020/12/16 05:11:57;;;;;;;157.18;37.63;;;6.90;99.90;;;;;;5047040;28;20048;-73
2020/12/16 05:14:24;;;;;;;166.43;37.63;;;6.90;99.90;;;;;;5046969;28;20430;-72
2020/12/16 05:16:59;;;;;;;156.73;37.73;;;6.90;99.90;;;;;;5046872;28;20049;-73
2020/12/16 05:19:36;;;;;;;121.28;31.65;;;6.90;99.90;;;;;;5047109;28;20049;-73
2020/12/16 05:22:24;;;;;;;111.60;31.02;;;6.90;99.90;;;;;;5032309;28;20089;-73
2020/12/16 05:24:55;;;;;;;111.47;28.83;;;6.90;99.90;;;;;;5046945;28;20049;-73
2020/12/16 05:27:41;;;;;;;124.50;30.70;;;6.80;99.90;;;;;;5031580;28;20461;-72
2020/12/16 05:30:27;;;;;;;124.53;29.30;;;6.80;99.90;;;;;;5032023;28;20042;-71
2020/12/16 05:33:13;;;;;;;99.10;27.92;;;6.70;99.90;;;;;;5031795;28;20049;-73
2020/12/16 05:35:42;;;;;;;134.32;31.42;;;6.70;99.90;;;;;;5046154;28;20041;-72
2020/12/16 05:38:10;;;;;;;129.82;33.55;;;6.70;99.90;;;;;;5046611;28;20045;-72
2020/12/16 05:40:41;;;;;;;137.65;32.75;;;6.70;99.90;;;;;;5046664;28;20400;-72
2020/12/16 05:43:08;;;;;;;157.93;33.13;;;6.70;99.90;;;;;;5046540;28;20052;-72
2020/12/16 05:45:40;;;;;;;157.52;34.38;;;6.70;99.90;;;;;;5046323;28;20041;-72
2020/12/16 05:48:10;;;;;;;154.82;31.70;;;6.70;99.90;;;;;;5046395;28;20084;-72
2020/12/16 05:50:53;;;;;;;162.98;32.92;;;6.70;99.90;;;;;;5046182;28;20051;-72
2020/12/16 05:53:24;;;;;;;144.73;30.55;;;6.70;99.90;;;;;;5046123;28;20101;-72
2020/12/16 05:55:51;;;;;;;154.07;31.63;;;6.70;99.90;;;;;;5046055;28;20057;-71
2020/12/16 05:58:18;;;;;;;167.45;34.67;;;6.70;99.90;;;;;;5046442;28;20049;-72
2020/12/16 06:00:46;;;;;;;128.77;32.42;;;6.70;99.90;;;;;;5046200;28;20045;-72
2020/12/16 06:03:36;;;;;;;132.65;30.48;;;6.70;99.90;;;;;;5059099;28;20042;-72
2020/12/16 06:06:23;;;;;;;132.55;31.35;;;6.70;99.90;;;;;;5039235;28;20050;-72
2020/12/16 06:08:49;;;;;;;153.02;33.25;;;6.70;99.90;;;;;;5043780;28;20084;-72
2020/12/16 06:11:16;;;;;;;128.60;29.80;;;6.70;99.90;;;;;;5045913;28;20045;-72
2020/12/16 06:14:05;;;;;;;141.55;31.42;;;6.70;99.90;;;;;;5044751;28;20053;-72
2020/12/16 06:16:37;;;;;;;142.57;29.60;;;6.70;99.90;;;;;;5045922;28;20046;-72
2020/12/16 06:19:04;;;;;;;151.93;32.33;;;6.80;99.90;;;;;;5035533;28;20050;-71
2020/12/16 06:21:56;;;;;;;161.10;32.47;;;6.80;99.90;;;;;;5011643;28;20081;-72
2020/12/16 06:24:28;;;;;;;152.48;29.95;;;6.80;99.90;;;;;;5026141;28;20042;-71
2020/12/16 06:27:05;;;;;;;162.75;32.88;;;6.80;99.90;;;;;;5025965;28;20085;-72
2020/12/16 06:29:31;;;;;;;121.18;31.17;;;6.90;99.90;;;;;;5040878;28;20045;-72
2020/12/16 06:32:02;;;;;;;139.73;31.83;;;6.90;99.90;;;;;;5045531;28;20117;-72
2020/12/16 06:34:29;;;;;;;158.70;34.83;;;6.90;99.90;;;;;;5045494;28;20061;-71
2020/12/16 06:36:55;;;;;;;115.25;29.73;;;7.00;99.90;;;;;;5045579;28;20049;-71
2020/12/16 06:39:41;;;;;;;103.07;29.50;;;7.00;99.90;;;;;;5030487;28;20054;-72
2020/12/16 06:42:07;;;;;;;104.68;31.38;;;7.00;99.90;;;;;;5045876;28;20065;-73
2020/12/16 06:44:33;;;;;;;95.38;29.92;;;7.00;99.90;;;;;;5045796;28;20048;-71
2020/12/16 06:46:59;;;;;;;106.65;29.98;;;7.10;99.90;;;;;;5045511;28;20045;-72
2020/12/16 06:49:34;;;;;;;121.20;31.75;;;7.10;99.90;;;;;;5045486;28;20466;-73
2020/12/16 06:52:28;;;;;;;85.30;27.65;;;7.10;99.90;;;;;;5030057;28;20046;-73
2020/12/16 06:55:14;;;;;;;94.10;30.58;;;7.10;99.90;;;;;;5010706;28;20057;-73
2020/12/16 06:57:48;;;;;;;92.28;30.60;;;7.20;99.90;;;;;;5025247;28;20046;-73
2020/12/16 07:00:22;;;;;;;80.95;27.48;;;7.20;99.90;;;;;;5025494;28;20046;-73
2020/12/16 07:03:16;;;;;;;84.55;28.95;;;7.20;99.90;;;;;;5010755;28;20073;-72
2020/12/16 07:05:42;;;;;;;93.05;30.27;;;7.20;99.90;;;;;;5025265;28;20049;-72
2020/12/16 07:08:28;;;;;;;69.65;23.25;;;7.20;99.90;;;;;;5010618;28;20076;-72
2020/12/16 07:11:44;;;;;;;71.97;24.27;;;7.30;99.90;;;;;;5010553;28;20061;-72
2020/12/16 07:14:11;;;;;;;61.35;21.33;;;7.30;99.90;;;;;;5024946;28;20056;-72
2020/12/16 07:17:17;;;;;;;68.45;22.88;;;7.30;99.90;;;;;;5038024;28;20114;-73
2020/12/16 07:20:32;;;;;;;58.95;21.20;;;7.30;99.90;;;;;;5010386;28;20501;-72
2020/12/16 07:22:58;;;;;;;63.83;25.83;;;7.40;99.90;;;;;;5025166;28;20046;-72
2020/12/16 07:25:23;;;;;;;61.38;23.25;;;7.30;99.90;;;;;;5024989;28;20143;-72
2020/12/16 07:27:51;;;;;;;65.97;23.50;;;7.40;99.90;;;;;;5027941;28;20068;-72
2020/12/16 07:30:16;;;;;;;65.03;24.55;;;7.30;99.90;;;;;;5028398;28;20056;-73
2020/12/16 07:33:15;;;;;;;65.05;24.40;;;7.20;99.90;;;;;;5013373;28;20066;-72
2020/12/16 07:36:02;;;;;;;73.80;24.48;;;7.10;99.90;;;;;;5013344;28;20054;-73
2020/12/16 07:38:28;;;;;;;76.30;24.98;;;7.00;99.90;;;;;;5028169;28;20098;-72
2020/12/16 07:40:55;;;;;;;79.30;25.50;;;6.90;99.90;;;;;;5028060;28;20054;-72
2020/12/16 07:43:22;;;;;;;83.00;26.15;;;6.80;99.90;;;;;;5027844;28;20437;-73
2020/12/16 07:46:07;;;;;;;80.78;25.70;;;6.80;99.90;;;;;;5027931;28;20101;-73
2020/12/16 07:48:53;;;;;;;92.13;26.23;;;6.70;99.90;;;;;;5040541;28;20057;-73
2020/12/16 07:51:20;;;;;;;84.18;26.75;;;6.70;99.90;;;;;;5027840;28;20049;-73
2020/12/16 07:54:06;;;;;;;84.13;27.00;;;6.70;99.90;;;;;;5040297;28;20085;-72
2020/12/16 07:56:32;;;;;;;63.90;24.40;;;6.80;99.90;;;;;;5027839;28;20107;-73
2020/12/16 07:59:08;;;;;;;67.43;25.23;;;7.00;99.90;;;;;;5027827;28;20182;-72
2020/12/16 08:02:10;;;;;;;62.88;24.52;;;7.10;99.90;;;;;;5013034;28;20072;-73
2020/12/16 08:04:58;;;;;;;62.95;26.00;;;7.20;99.90;;;;;;5013031;28;20149;-73
2020/12/16 08:07:24;;;;;;;58.08;20.88;;;7.20;99.90;;;;;;5027279;28;20041;-72
2020/12/16 08:10:11;;;;;;;67.20;24.00;;;7.30;99.90;;;;;;5015396;28;20053;-74
2020/12/16 08:12:42;;;;;;;60.72;21.75;;;7.30;99.90;;;;;;5045850;28;20572;-69
2020/12/16 08:15:29;;;;;;;61.47;21.77;;;7.30;99.90;;;;;;5032473;28;20046;-69
2020/12/16 08:17:56;;;;;;;55.50;22.05;;;7.40;99.90;;;;;;5046481;28;20067;-73
2020/12/16 08:20:25;;;;;;;64.35;22.90;;;7.40;99.90;;;;;;5046255;28;20105;-69
2020/12/16 08:22:56;;;;;;;60.45;22.35;;;7.40;99.90;;;;;;5046522;28;20041;-68
2020/12/16 08:25:23;;;;;;;51.70;21.10;;;7.40;99.90;;;;;;5038396;28;20072;-78
2020/12/16 08:28:09;;;;;;;51.97;22.23;;;7.40;99.90;;;;;;5030368;28;20184;-78
2020/12/16 08:30:38;;;;;;;51.38;22.35;;;7.40;99.90;;;;;;5045825;28;20037;-78
2020/12/16 08:33:06;;;;;;;52.42;21.75;;;7.50;99.90;;;;;;5045594;28;20041;-78
2020/12/16 08:36:10;;;;;;;63.40;23.10;;;7.40;99.90;;;;;;5031338;28;20053;-77
2020/12/16 08:38:43;;;;;;;55.00;21.98;;;7.50;99.90;;;;;;5030739;28;20038;-78
2020/12/16 08:41:10;;;;;;;58.38;22.10;;;7.50;99.90;;;;;;5045932;28;20055;-78
2020/12/16 08:43:39;;;;;;;56.22;22.67;;;7.50;99.90;;;;;;5046400;28;20128;-77
2020/12/16 08:46:26;;;;;;;46.63;20.25;;;7.50;99.90;;;;;;5046072;28;20045;-77
2020/12/16 08:48:59;;;;;;;57.85;22.38;;;7.50;99.90;;;;;;5032604;28;20045;-77
2020/12/16 08:51:45;;;;;;;53.15;22.50;;;7.50;99.90;;;;;;5031548;28;20481;-78
2020/12/16 08:54:22;;;;;;;53.75;22.75;;;7.50;99.90;;;;;;5039136;28;20045;-77
2020/12/16 08:56:57;;;;;;;67.70;23.40;;;7.50;99.90;;;;;;5046246;28;20052;-77
2020/12/16 08:59:22;;;;;;;51.92;21.60;;;7.60;99.90;;;;;;5046560;28;20046;-77
2020/12/16 09:01:53;;;;;;;55.60;23.55;;;7.60;99.90;;;;;;5046538;28;20049;-77
2020/12/16 09:04:30;;;;;;;66.43;25.13;;;7.60;99.90;;;;;;5046379;28;20045;-77
2020/12/16 09:07:09;;;;;;;51.30;23.88;;;7.60;99.90;;;;;;5045878;28;20068;-77
2020/12/16 09:09:36;;;;;;;;;;;7.70;99.90;;;;;;5046796;28;20049;-77
2020/12/16 09:12:23;;;;;;;58.28;25.25;;;7.70;99.90;;;;;;5031612;28;20048;-77
2020/12/16 09:14:53;;;;;;;56.63;26.83;;;7.70;99.90;;;;;;5046354;28;20041;-77
2020/12/16 09:17:25;;;;;;;59.40;24.33;;;7.70;99.90;;;;;;5045777;28;20069;-77
2020/12/16 09:20:11;;;;;;;63.85;27.33;;;7.70;99.90;;;;;;5027853;28;20104;-70
2020/12/16 09:22:37;;;;;;;67.68;27.08;;;7.70;99.90;;;;;;5043154;28;20037;-66
2020/12/16 09:25:03;;;;;;;59.72;27.75;;;7.70;99.90;;;;;;5037867;28;20072;-66
2020/12/16 09:27:28;;;;;;;60.97;28.35;;;7.70;99.90;;;;;;5041977;28;20045;-66
2020/12/16 09:29:54;;;;;;;56.38;25.92;;;7.80;99.90;;;;;;5046098;28;20061;-66
2020/12/16 09:32:40;;;;;;;62.83;28.75;;;7.80;99.90;;;;;;5029452;28;20053;-65
2020/12/16 09:35:10;;;;;;;69.70;28.70;;;7.80;99.90;;;;;;5034026;28;20073;-65
2020/12/16 09:37:36;;;;;;;69.63;28.40;;;7.80;99.90;;;;;;5039012;28;20045;-69
2020/12/16 09:40:26;;;;;;;58.83;28.15;;;7.80;99.90;;;;;;5050510;28;20076;-72
2020/12/16 09:42:57;;;;;;;60.60;29.00;;;7.90;99.90;;;;;;5044272;28;20097;-71
2020/12/16 09:45:24;;;;;;;58.83;28.33;;;7.80;99.90;;;;;;5042505;28;20662;-71
2020/12/16 09:47:52;;;;;;;65.10;30.00;;;7.90;99.90;;;;;;5045542;28;20102;-69
2020/12/16 09:50:28;;;;;;;;;;;7.90;99.90;;;;;;5041885;28;20565;-69
2020/12/16 09:52:58;;;;;;;76.72;31.63;;;7.90;99.90;;;;;;5045900;28;19928;-68
2020/12/16 09:55:44;;;;;;;85.22;35.20;;;7.80;99.90;;;;;;5019901;28;20045;-68
2020/12/16 09:58:12;;;;;;;85.85;37.10;;;7.80;99.90;;;;;;5044634;28;20068;-66
2020/12/16 10:00:38;;;;;;;;;;;7.70;99.90;;;;;;5045514;28;20045;-65
2020/12/16 10:03:11;;;;;;;98.70;36.25;;;7.60;99.90;;;;;;5047283;28;19927;-73
2020/12/16 10:05:39;;;;;;;100.72;37.45;;;7.60;99.90;;;;;;5043341;28;20125;-72
2020/12/16 10:08:25;;;;;;;124.38;38.90;;;7.50;99.90;;;;;;5015127;28;20092;-71
2020/12/16 10:10:51;;;;;;;123.45;39.95;;;7.50;99.90;;;;;;5048374;28;20037;-71
2020/12/16 10:13:16;;;;;;;121.72;39.30;;;7.40;99.90;;;;;;5030210;28;20046;-69
2020/12/16 10:16:02;;;;;;;131.27;41.47;;;7.40;99.90;;;;;;5054553;28;20050;-69
2020/12/16 10:18:28;;;;;;;139.13;41.80;;;7.50;99.90;;;;;;5043577;28;20055;-65
2020/12/16 10:20:54;;;;;;;120.82;38.88;;;7.40;99.90;;;;;;5035686;28;20079;-66
2020/12/16 10:23:20;;;;;;;140.20;42.58;;;7.40;99.90;;;;;;5035117;28;20041;-66
2020/12/16 10:25:46;;;;;;;145.40;41.85;;;7.40;99.90;;;;;;5030966;28;20080;-66
2020/12/16 10:28:32;;;;;;;134.43;42.42;;;7.40;99.90;;;;;;5016709;28;20049;-66
2020/12/16 10:31:17;;;;;;;143.23;41.20;;;7.40;99.90;;;;;;5045974;28;20045;-66
2020/12/16 10:33:43;;;;;;;126.85;38.88;;;7.40;99.90;;;;;;5034674;28;20106;-66
2020/12/16 10:36:11;;;;;;;116.85;38.50;;;7.40;99.90;;;;;;5044998;28;20135;-66
2020/12/16 10:38:37;;;;;;;105.85;38.60;;;7.30;99.90;;;;;;5037653;28;20061;-66
2020/12/16 10:41:03;;;;;;;129.75;41.00;;;7.40;99.90;;;;;;5040437;28;20136;-72
2020/12/16 10:43:29;;;;;;;92.75;35.08;;;7.40;99.90;;;;;;5032353;28;20046;-68
2020/12/16 10:46:15;;;;;;;113.38;39.45;;;7.50;99.90;;;;;;5034877;28;20049;-68
2020/12/16 10:49:01;;;;;;;107.85;36.50;;;7.50;99.90;;;;;;5040194;28;20052;-71
2020/12/16 10:51:27;;;;;;;101.88;36.97;;;7.50;99.90;;;;;;5028809;28;20077;-71
2020/12/16 10:54:14;;;;;;;99.53;37.22;;;7.50;99.90;;;;;;5039831;28;20079;-69
2020/12/16 10:56:39;;;;;;;93.25;38.67;;;7.50;99.90;;;;;;5040561;28;20041;-68
2020/12/16 10:59:05;;;;;;;108.50;39.25;;;7.60;99.90;;;;;;5043953;28;20048;-67
2020/12/16 11:01:38;;;;;;;110.22;40.13;;;7.50;99.90;;;;;;5042684;28;20041;-71
2020/12/16 11:04:07;;;;;;;115.93;39.88;;;7.60;99.90;;;;;;5041698;28;20042;-65
2020/12/16 11:06:35;;;;;;;105.38;40.15;;;7.60;99.90;;;;;;5042448;28;20041;-71
2020/12/16 11:09:02;;;;;;;90.18;35.40;;;7.60;99.90;;;;;;5031135;28;20037;-72
2020/12/16 11:11:28;;;;;;;103.30;39.00;;;7.70;99.90;;;;;;5039867;28;20033;-68
2020/12/16 11:13:53;;;;;;;109.50;38.47;;;7.70;99.90;;;;;;5049825;28;20037;-67
2020/12/16 11:16:26;;;;;;;112.80;39.08;;;7.60;99.90;;;;;;5050462;28;20053;-65
2020/12/16 11:19:14;;;;;;;128.10;41.42;;;7.60;99.90;;;;;;5029965;28;20076;-69
2020/12/16 11:21:42;;;;;;;134.85;40.90;;;7.60;99.90;;;;;;5041207;28;20155;-67
2020/12/16 11:24:27;;;;;;;124.13;38.50;;;7.50;99.90;;;;;;5061261;28;20049;-68
2020/12/16 11:26:53;;;;;;;106.25;39.42;;;7.50;99.90;;;;;;5041196;28;20061;-70
2020/12/16 11:29:41;;;;;;;140.23;40.95;;;7.50;99.90;;;;;;5024289;28;20046;-69
2020/12/16 11:32:07;;;;;;;136.10;40.05;;;7.50;99.90;;;;;;5031982;28;20069;-70
2020/12/16 11:34:33;;;;;;;99.43;35.40;;;7.40;99.90;;;;;;5031581;28;20057;-68
2020/12/16 11:37:19;;;;;;;138.48;38.10;;;7.40;99.90;;;;;;5022710;28;20076;-64
2020/12/16 11:39:45;;;;;;;156.55;39.28;;;7.40;99.90;;;;;;5039683;28;20087;-70
2020/12/16 11:42:10;;;;;;;142.23;39.85;;;7.30;99.90;;;;;;5042374;28;20046;-68
2020/12/16 11:44:36;;;;;;;177.27;41.90;;;7.20;99.90;;;;;;5048404;28;20049;-70
2020/12/16 11:47:22;;;;;;;123.18;37.30;;;7.20;99.90;;;;;;5021060;28;20046;-67
2020/12/16 11:49:48;;;;;;;131.98;41.17;;;7.20;99.90;;;;;;5041008;28;20136;-71
2020/12/16 11:52:34;;;;;;;127.72;37.15;;;7.20;99.90;;;;;;5026500;28;20096;-71
2020/12/16 11:55:00;;;;;;;155.23;43.42;;;7.20;99.90;;;;;;5034500;28;20500;-71
2020/12/16 11:57:26;;;;;;;121.22;38.70;;;7.20;99.90;;;;;;5041564;28;20073;-71
2020/12/16 11:59:52;;;;;;;156.27;42.78;;;7.10;99.90;;;;;;5047270;28;20538;-71
2020/12/16 12:02:17;;;;;;;134.63;40.00;;;7.20;99.90;;;;;;5046739;28;20045;-71
2020/12/16 12:04:43;;;;;;;103.30;38.45;;;7.30;99.90;;;;;;5047132;28;20041;-71
2020/12/16 12:07:09;;;;;;;122.30;39.38;;;7.20;99.90;;;;;;5046658;28;20045;-71
2020/12/16 12:09:35;;;;;;;118.97;39.30;;;7.20;99.90;;;;;;5044885;28;20052;-68
2020/12/16 12:12:01;;;;;;;132.45;46.75;;;7.30;99.90;;;;;;5039469;28;20134;-73
2020/12/16 12:14:28;;;;;;;164.70;46.95;;;7.20;99.90;;;;;;5045831;28;20047;-71
2020/12/16 12:17:14;;;;;;;131.13;45.53;;;7.20;99.90;;;;;;5029965;28;20053;-69
2020/12/16 12:19:42;;;;;;;143.00;45.95;;;7.30;99.90;;;;;;5044744;28;20045;-71
2020/12/16 12:22:10;;;;;;;119.72;45.35;;;7.30;99.90;;;;;;5033745;28;20049;-70
2020/12/16 12:24:56;;;;;;;122.97;43.42;;;7.30;99.90;;;;;;5036900;28;20408;-70
2020/12/16 12:27:22;;;;;;;101.53;38.00;;;7.30;99.90;;;;;;5046617;28;20061;-68
2020/12/16 12:29:48;;;;;;;100.10;39.92;;;7.30;99.90;;;;;;5034917;28;20081;-68
2020/12/16 12:32:14;;;;;;;106.65;43.08;;;7.30;99.90;;;;;;5044769;28;20075;-69
2020/12/16 12:35:00;;;;;;;124.03;47.03;;;7.30;99.90;;;;;;5031778;28;20056;-72
2020/12/16 12:37:26;;;;;;;119.00;42.47;;;7.40;99.90;;;;;;5044246;28;20049;-65
2020/12/16 12:40:11;;;;;;;102.13;40.20;;;7.40;99.90;;;;;;5031434;28;20053;-65
2020/12/16 12:42:37;;;;;;;116.45;44.65;;;7.30;99.90;;;;;;5046575;28;20400;-65
2020/12/16 12:45:06;;;;;;;120.32;45.58;;;7.40;99.90;;;;;;5046562;28;20041;-65
2020/12/16 12:47:33;;;;;;;130.38;48.35;;;7.40;99.90;;;;;;5039889;28;20063;-65
2020/12/16 12:49:59;;;;;;;123.90;48.35;;;7.40;99.90;;;;;;5046428;28;20498;-65
2020/12/16 12:52:25;;;;;;;138.82;51.95;;;7.50;99.90;;;;;;5035057;28;20061;-66
2020/12/16 12:55:10;;;;;;;100.97;43.92;;;7.60;99.90;;;;;;5023404;28;20072;-67
2020/12/16 12:57:40;;;;;;;99.45;45.72;;;7.60;99.90;;;;;;5043208;28;20045;-65